WetterOnline ( http://www.wetteronline.de )

Wetter aktuell Ellscheid

Aktuelles Wetter: Nürburg-Barweiler (488m)

6-stündlich | Neueste Meldungen
Ortszeit Temperatur Wetter
Sa, 24.02. 19:00 -3.5° C bedeckt
Sa, 24.02. 13:00 -0.1° C leicht bewölkt
Sa, 24.02. 7:00 -7.6° C leicht bewölkt
Sa, 24.02. 1:00 -5.8° C bedeckt
Fr, 23.02. 19:00 -2.6° C bedeckt
Fr, 23.02. 13:00 -1.7° C wolkenlos
Fr, 23.02. 7:00 -6.0° C bewölkt
Fr, 23.02. 1:00 -4.4° C bedeckt
Ortszeit Temperatur Wetter
So, 25.02. 0:30 -5.7° C bedeckt
So, 25.02. 0:20 -5.7° C bedeckt
So, 25.02. 0:10 -5.7° C bedeckt
So, 25.02. 0:00 -5.6° C bedeckt
Sa, 24.02. 23:50 -5.6° C bedeckt
Sa, 24.02. 23:40 -5.3° C bedeckt
Sa, 24.02. 23:30 -5.2° C leicht bewölkt
Sa, 24.02. 23:00 -5.1° C leicht bewölkt
Sa, 24.02. 22:30 -4.7° C bedeckt
Sa, 24.02. 22:00 -4.4° C bedeckt
Sa, 24.02. 21:30 -4.3° C bedeckt
Ortszeit Relative Feuchte Sichtweite
Sa, 24.02. 19:00 55% 20 km
Sa, 24.02. 13:00 40% 10 km
Sa, 24.02. 7:00 60% 10 km
Sa, 24.02. 1:00 62% 8 km
Fr, 23.02. 19:00 47% 18 km
Fr, 23.02. 13:00 46% 15 km
Fr, 23.02. 7:00 67% 23 km
Fr, 23.02. 1:00 66% 18 km
Ortszeit Relative Feuchte Sichtweite
So, 25.02. 0:30 56% 35 km
So, 25.02. 0:20 56% -
So, 25.02. 0:10 56% -
So, 25.02. 0:00 56% 35 km
Sa, 24.02. 23:50 56% -
Sa, 24.02. 23:40 54% -
Sa, 24.02. 23:30 55% 35 km
Sa, 24.02. 23:00 55% 40 km
Sa, 24.02. 22:30 54% 35 km
Sa, 24.02. 22:00 53% 35 km
Sa, 24.02. 21:30 57% 30 km
Ortszeit Niederschlagsmenge Niederschlagsart
Sa, 24.02. 19:00 0.0 l/m2 in 12 Std. -
Sa, 24.02. 13:00 0.0 l/m2 in 6 Std. -
Sa, 24.02. 7:00 0.0 l/m2 in 12 Std. -
Sa, 24.02. 1:00 0.0 l/m2 in 6 Std. -
Fr, 23.02. 19:00 0.0 l/m2 in 12 Std. -
Fr, 23.02. 13:00 0.0 l/m2 in 6 Std. -
Fr, 23.02. 7:00 0.0 l/m2 in 12 Std. -
Fr, 23.02. 1:00 0.0 l/m2 in 6 Std. -
Ortszeit Niederschlagsmenge Niederschlagsart
So, 25.02. 0:30 0.0 l/m2 in 1 Std. -
So, 25.02. 0:20 keine Meldung -
So, 25.02. 0:10 keine Meldung -
So, 25.02. 0:00 0.0 l/m2 in 1 Std. -
Sa, 24.02. 23:50 keine Meldung -
Sa, 24.02. 23:40 keine Meldung -
Sa, 24.02. 23:30 0.0 l/m2 in 1 Std. -
Sa, 24.02. 23:00 0.0 l/m2 in 1 Std. -
Sa, 24.02. 22:30 0.0 l/m2 in 1 Std. -
Sa, 24.02. 22:00 0.0 l/m2 in 1 Std. -
Sa, 24.02. 21:30 0.0 l/m2 in 1 Std. -
Ortszeit Stärke Spitze Richtung
km/h Bft. km/h Grad Sektor
Sa, 24.02. 19:00 28 4 54 70° O
Sa, 24.02. 13:00 33 5 50 80° O
Sa, 24.02. 7:00 19 3 41 80° O
Sa, 24.02. 1:00 14 3 36 80° O
Fr, 23.02. 19:00 24 4 41 70° O
Fr, 23.02. 13:00 17 3 43 60° NO
Fr, 23.02. 7:00 18 3 40 60° NO
Fr, 23.02. 1:00 14 3 36 80° O
Ortszeit Stärke Spitze Richtung
km/h Bft. km/h Grad Sektor
So, 25.02. 0:30 28 4 46 70° O
So, 25.02. 0:20 28 4 - 70° O
So, 25.02. 0:10 25 4 - 70° O
So, 25.02. 0:00 26 4 48 80° O
Sa, 24.02. 23:50 26 4 - 80° O
Sa, 24.02. 23:40 30 5 - 80° O
Sa, 24.02. 23:30 28 4 43 80° O
Sa, 24.02. 23:00 22 4 47 70° O
Sa, 24.02. 22:30 28 4 43 70° O
Sa, 24.02. 22:00 28 4 52 80° O
Sa, 24.02. 21:30 29 5 50 80° O
Ortszeit Untergrenze Bedeckung Gattung
total tief tief mittel hoch
Sa, 24.02. 19:00 - 8/8 - - - -
Sa, 24.02. 13:00 8400 m 8/8 0/8 - - -
Sa, 24.02. 7:00 1500 m 3/8 3/8 - - -
Sa, 24.02. 1:00 - 8/8 - - - -
Fr, 23.02. 19:00 - 8/8 - - - -
Fr, 23.02. 13:00 - 0/8 0/8 - - -
Fr, 23.02. 7:00 1020 m 8/8 4/8 - - -
Fr, 23.02. 1:00 - 8/8 - - - -
Ortszeit Bedeckungsgrad in Achtel und Wolkenuntergrenze
So, 25.02. 0:30 9 9 9
So, 25.02. 0:20 9 9 9
So, 25.02. 0:10 9 9 9
So, 25.02. 0:00 9 9 9
Sa, 24.02. 23:50 9 9 9
Sa, 24.02. 23:40 9 9 9
Sa, 24.02. 23:30 2(1110m) 3(1500m) 9
Sa, 24.02. 23:00 1(990m) 3(1440m)
Sa, 24.02. 22:30 9 9 9
Sa, 24.02. 22:00 9 9 9
Sa, 24.02. 21:30 9 9 9
Ortszeit Luftdruck NN (hPa) Tendenz (hPa in 3 Std.)
Sa, 24.02. 19:00 1025 + 1,3
Sa, 24.02. 13:00 1023 + 0,3
Sa, 24.02. 7:00 1023 + 0,7
Sa, 24.02. 1:00 1022 + 0,3
Fr, 23.02. 19:00 1020 + 0,4
Fr, 23.02. 13:00 1021 - 0,3
Fr, 23.02. 7:00 1022 + 0,3
Fr, 23.02. 1:00 1022 - 0,5
Ortszeit Luftdruck NN (hPa) Tendenz (hPa in 3 Std.)
So, 25.02. 0:30 1027 + 0,9
So, 25.02. 0:20 1027 keine Meldung
So, 25.02. 0:10 1026 keine Meldung
So, 25.02. 0:00 1026 + 0,4
Sa, 24.02. 23:50 1026 keine Meldung
Sa, 24.02. 23:40 1026 keine Meldung
Sa, 24.02. 23:30 1026 + 0,4
Sa, 24.02. 23:00 1026 + 0,7
Sa, 24.02. 22:30 1026 + 0,7
Sa, 24.02. 22:00 1025 + 0,5
Sa, 24.02. 21:30 1025 + 0,7
Ortszeit Schneehöhe (cm)
Sa, 24.02. 19:00 0
Sa, 24.02. 13:00 0
Sa, 24.02. 7:00 0
Sa, 24.02. 1:00 0
Fr, 23.02. 19:00 0
Fr, 23.02. 13:00 0
Fr, 23.02. 7:00 0
Fr, 23.02. 1:00 0
Ortszeit Schneehöhe (cm)
So, 25.02. 0:30 0
So, 25.02. 0:20 0
So, 25.02. 0:10 0
So, 25.02. 0:00 0
Sa, 24.02. 23:50 0
Sa, 24.02. 23:40 0
Sa, 24.02. 23:30 0
Sa, 24.02. 23:00 0
Sa, 24.02. 22:30 0
Sa, 24.02. 22:00 0
Sa, 24.02. 21:30 0
Link zu dieser Seite / Seite empfehlen

Das Wetter in ...